Time;durP1;ratioP1;P1;durP2;ratioP2;P2;SDS_P1;SDS_P2;PMS_P1;PMS_P2;Temp;Humidity;BMP_temperature;BMP_pressure;BME280_temperature;BME280_humidity;BME280_pressure;Samples;Min_cycle;Max_cycle;Signal;HPM_P1;HPM_P2
2022/05/03 00:02:22;;;;;;;6.45;5.85;;;8.00;99.90;;;;;;5083076;28;20040;-74
2022/05/03 00:05:07;;;;;;;9.48;5.75;;;8.00;99.90;;;;;;5103436;27;20047;-74
2022/05/03 00:07:52;;;;;;;6.95;5.47;;;7.90;99.90;;;;;;5103575;27;20502;-74
2022/05/03 00:10:27;;;;;;;7.45;5.60;;;7.90;99.90;;;;;;5105297;27;20047;-74
2022/05/03 00:13:02;;;;;;;9.93;5.68;;;7.90;99.90;;;;;;5107159;27;20031;-74
2022/05/03 00:15:31;;;;;;;10.18;6.35;;;7.80;99.90;;;;;;5110042;28;20104;-74
2022/05/03 00:17:57;;;;;;;8.02;6.07;;;7.80;99.90;;;;;;5112697;27;20081;-74
2022/05/03 00:20:24;;;;;;;6.95;6.25;;;7.80;99.90;;;;;;5121803;27;20033;-75
2022/05/03 00:22:50;;;;;;;8.77;5.90;;;7.70;99.90;;;;;;5110376;27;20327;-74
2022/05/03 00:25:16;;;;;;;6.15;5.40;;;7.70;99.90;;;;;;5092622;28;20153;-74
2022/05/03 00:27:42;;;;;;;9.85;6.72;;;7.60;99.90;;;;;;5109850;27;20395;-75
2022/05/03 00:30:09;;;;;;;9.27;6.38;;;9.10;99.90;;;;;;5110579;27;20040;-75
2022/05/03 00:32:35;;;;;;;8.25;6.43;;;7.70;99.90;;;;;;5109237;28;20483;-74
2022/05/03 00:35:02;;;;;;;8.88;6.05;;;7.60;99.90;;;;;;5112909;27;20048;-75
2022/05/03 00:37:28;;;;;;;9.45;6.38;;;7.60;99.90;;;;;;5106821;27;20047;-74
2022/05/03 00:39:54;;;;;;;6.65;5.85;;;7.60;99.90;;;;;;5109321;27;20483;-74
2022/05/03 00:42:26;;;;;;;8.00;6.03;;;7.60;99.90;;;;;;5092494;28;20126;-75
2022/05/03 00:45:07;;;;;;;6.72;5.38;;;7.50;99.90;;;;;;5095664;27;20066;-74
2022/05/03 00:47:53;;;;;;;8.68;5.18;;;7.50;99.90;;;;;;5097457;27;20048;-75
2022/05/03 00:50:39;;;;;;;7.28;5.80;;;7.50;99.90;;;;;;5101686;28;20482;-74
2022/05/03 00:53:10;;;;;;;6.60;5.25;;;7.40;99.90;;;;;;5097643;28;20082;-75
2022/05/03 00:56:07;;;;;;;6.43;5.22;;;7.40;99.90;;;;;;5098491;28;20043;-75
2022/05/03 00:58:55;;;;;;;6.50;5.70;;;7.40;99.90;;;;;;5098763;28;20050;-75
2022/05/03 01:01:23;;;;;;;8.32;5.65;;;7.30;99.90;;;;;;5102005;27;20040;-75
2022/05/03 01:04:04;;;;;;;6.57;5.30;;;7.30;99.90;;;;;;5100382;28;20047;-74
2022/05/03 01:06:49;;;;;;;6.70;6.10;;;7.20;99.90;;;;;;5102153;27;20441;-75
2022/05/03 01:09:38;;;;;;;6.32;5.68;;;8.30;99.90;;;;;;5089384;27;20511;-74
2022/05/03 01:12:24;;;;;;;10.40;6.97;;;6.80;99.90;;;;;;5078652;27;20086;-75
2022/05/03 01:15:16;;;;;;;7.22;6.55;;;7.20;99.90;;;;;;5089526;27;20096;-75
2022/05/03 01:17:51;;;;;;;7.13;5.63;;;7.10;99.90;;;;;;5080634;28;20101;-76
2022/05/03 01:20:30;;;;;;;8.10;6.40;;;7.10;99.90;;;;;;5085676;27;20452;-75
2022/05/03 01:23:44;;;;;;;9.52;7.03;;;7.10;99.90;;;;;;5096689;27;20040;-75
2022/05/03 01:26:41;;;;;;;9.45;6.38;;;7.10;99.90;;;;;;5081672;27;20043;-74
2022/05/03 01:29:19;;;;;;;6.60;6.00;;;7.10;99.90;;;;;;5089568;27;20051;-76
2022/05/03 01:31:46;;;;;;;7.05;5.93;;;7.00;99.90;;;;;;5095784;27;20055;-74
2022/05/03 01:34:17;;;;;;;7.95;6.25;;;7.00;99.90;;;;;;5094920;27;20044;-74
2022/05/03 01:37:10;;;;;;;9.10;6.72;;;7.00;99.90;;;;;;5088355;27;20463;-74
2022/05/03 01:39:52;;;;;;;6.38;5.78;;;6.90;99.90;;;;;;5082192;28;20048;-75
2022/05/03 01:42:54;;;;;;;7.90;7.13;;;6.90;99.90;;;;;;5103635;27;20039;-75
2022/05/03 01:45:29;;;;;;;7.35;6.63;;;6.90;99.90;;;;;;5100136;27;20036;-74
2022/05/03 01:48:20;;;;;;;8.48;6.72;;;6.90;99.90;;;;;;5095582;27;20063;-75
2022/05/03 01:51:11;;;;;;;9.88;6.80;;;6.90;99.90;;;;;;5096503;27;20104;-74
2022/05/03 01:53:44;;;;;;;7.18;6.30;;;6.90;99.90;;;;;;5098747;28;20092;-75
2022/05/03 01:56:22;;;;;;;8.57;6.70;;;6.90;99.90;;;;;;5101017;28;20051;-74
2022/05/03 01:59:07;;;;;;;7.38;6.40;;;6.90;99.90;;;;;;5095649;27;20158;-74
2022/05/03 02:01:59;;;;;;;7.18;6.32;;;6.80;99.90;;;;;;5100037;28;20055;-74
2022/05/03 02:05:03;;;;;;;11.45;6.20;;;6.80;99.90;;;;;;5111075;27;20052;-75
2022/05/03 02:07:34;;;;;;;11.80;6.68;;;6.80;99.90;;;;;;5090445;28;20062;-75
2022/05/03 02:10:11;;;;;;;6.85;6.18;;;7.90;99.90;;;;;;5104178;27;20035;-75
2022/05/03 02:12:37;;;;;;;7.90;6.90;;;6.80;99.90;;;;;;5105985;28;20047;-75
2022/05/03 02:15:09;;;;;;;11.43;6.47;;;6.70;99.90;;;;;;5105189;28;20093;-75
2022/05/03 02:17:53;;;;;;;7.07;6.20;;;6.60;99.90;;;;;;5103793;27;20428;-75
2022/05/03 02:20:28;;;;;;;7.90;6.53;;;6.70;99.90;;;;;;5107585;28;20044;-75
2022/05/03 02:23:10;;;;;;;10.52;6.95;;;6.70;99.90;;;;;;5103130;28;20079;-75
2022/05/03 02:26:14;;;;;;;12.02;6.75;;;6.70;99.90;;;;;;5102663;28;20155;-75
2022/05/03 02:28:53;;;;;;;7.28;6.47;;;6.70;99.90;;;;;;5101808;28;20063;-75
2022/05/03 02:31:30;;;;;;;7.65;6.13;;;8.00;99.90;;;;;;5107537;28;20035;-75
2022/05/03 02:34:07;;;;;;;8.30;6.35;;;6.70;99.90;;;;;;5103623;28;20048;-74
2022/05/03 02:36:50;;;;;;;12.77;7.65;;;6.80;99.90;;;;;;5106966;28;20047;-75
2022/05/03 02:39:21;;;;;;;8.13;6.93;;;6.60;99.90;;;;;;5077937;28;20075;-74
2022/05/03 02:41:49;;;;;;;9.07;6.97;;;6.60;99.90;;;;;;5099768;28;20039;-74
2022/05/03 02:44:16;;;;;;;9.13;7.20;;;6.50;99.90;;;;;;5085447;28;20040;-74
2022/05/03 02:46:54;;;;;;;11.32;7.70;;;6.60;99.90;;;;;;5105998;28;20347;-74
2022/05/03 02:49:23;;;;;;;11.55;7.55;;;6.60;99.90;;;;;;5099642;28;20526;-74
2022/05/03 02:52:14;;;;;;;8.63;7.32;;;6.60;99.90;;;;;;5088374;28;20048;-74
2022/05/03 02:54:51;;;;;;;9.77;7.60;;;6.60;99.90;;;;;;5099366;28;20407;-74
2022/05/03 02:57:46;;;;;;;9.57;8.52;;;6.50;99.90;;;;;;5103291;27;20079;-73
2022/05/03 03:03:18;;;;;;;10.95;8.88;;;6.50;99.90;;;;;;5104634;28;20043;-74
2022/05/03 03:05:47;;;;;;;9.55;8.10;;;6.50;99.90;;;;;;5081514;28;20052;-74
2022/05/03 03:08:19;;;;;;;10.25;9.25;;;6.50;99.90;;;;;;5098342;28;20040;-74
2022/05/03 03:10:54;;;;;;;10.80;8.48;;;6.60;99.90;;;;;;5103904;28;20522;-74
2022/05/03 03:13:23;;;;;;;11.95;9.70;;;6.60;99.90;;;;;;5100748;28;20483;-74
2022/05/03 03:15:49;;;;;;;11.93;9.32;;;6.20;99.90;;;;;;5109491;28;20044;-74
2022/05/03 03:18:17;;;;;;;13.55;9.77;;;7.20;99.90;;;;;;5109538;27;20046;-74
2022/05/03 03:20:53;;;;;;;13.38;9.95;;;6.10;99.90;;;;;;5109440;28;20232;-74
2022/05/03 03:23:29;;;;;;;11.75;10.45;;;6.60;99.90;;;;;;5100917;28;20250;-74
2022/05/03 03:25:55;;;;;;;9.70;8.80;;;6.70;99.90;;;;;;5109716;28;20039;-75
2022/05/03 03:28:22;;;;;;;10.95;9.23;;;6.70;99.90;;;;;;5108932;28;20030;-75
2022/05/03 03:30:52;;;;;;;10.07;9.07;;;6.70;99.90;;;;;;5106745;28;20491;-75
2022/05/03 03:33:19;;;;;;;15.90;10.25;;;6.70;99.90;;;;;;5101784;28;20036;-75
2022/05/03 03:35:46;;;;;;;12.02;9.75;;;6.80;99.90;;;;;;5086528;28;20044;-75
2022/05/03 03:38:16;;;;;;;11.88;8.93;;;6.80;99.90;;;;;;5103531;28;20062;-74
2022/05/03 03:40:45;;;;;;;12.82;9.07;;;6.80;99.90;;;;;;5108734;28;20518;-74
2022/05/03 03:43:12;;;;;;;10.10;9.10;;;6.80;99.90;;;;;;5106740;28;20114;-74
2022/05/03 03:45:38;;;;;;;11.43;8.55;;;8.20;99.90;;;;;;5106759;28;20065;-74
2022/05/03 03:48:05;;;;;;;10.95;9.75;;;6.80;99.90;;;;;;5110378;28;20500;-74
2022/05/03 03:50:31;;;;;;;11.27;9.60;;;6.90;99.90;;;;;;5105042;27;20047;-74
2022/05/03 03:52:57;;;;;;;11.73;10.63;;;6.90;99.90;;;;;;5106677;28;20127;-74
2022/05/03 03:55:24;;;;;;;10.45;9.40;;;6.90;99.90;;;;;;5110018;28;20138;-74
2022/05/03 03:57:51;;;;;;;13.45;10.80;;;7.00;99.90;;;;;;5109969;28;20063;-74
2022/05/03 04:00:17;;;;;;;15.52;12.77;;;7.00;99.90;;;;;;5107398;28;20057;-74
2022/05/03 04:02:45;;;;;;;15.85;12.63;;;7.20;99.90;;;;;;5105841;27;20394;-75
2022/05/03 04:05:15;;;;;;;15.32;12.15;;;7.00;99.90;;;;;;5107490;28;20453;-75
2022/05/03 04:07:41;;;;;;;13.65;11.70;;;7.00;99.90;;;;;;5082231;28;20100;-74
2022/05/03 04:10:07;;;;;;;13.05;11.73;;;7.00;99.90;;;;;;5108471;27;20039;-74
2022/05/03 04:12:33;;;;;;;14.98;13.23;;;7.00;99.90;;;;;;5109837;28;20055;-74
2022/05/03 04:14:58;;;;;;;19.92;13.02;;;6.90;99.90;;;;;;5104813;28;20039;-74
2022/05/03 04:17:24;;;;;;;15.82;13.95;;;6.90;99.90;;;;;;5110864;28;20049;-74
2022/05/03 04:19:50;;;;;;;14.82;13.27;;;7.00;99.90;;;;;;5104873;27;20282;-74
2022/05/03 04:22:28;;;;;;;14.90;13.27;;;6.90;99.90;;;;;;5105221;28;20096;-74
2022/05/03 04:24:54;;;;;;;15.65;12.43;;;7.00;99.90;;;;;;5088531;28;20075;-75
2022/05/03 04:27:22;;;;;;;17.05;13.25;;;7.10;99.90;;;;;;5108260;27;20473;-74
2022/05/03 04:29:49;;;;;;;17.55;13.43;;;7.10;99.90;;;;;;5102279;28;20043;-74
2022/05/03 04:32:15;;;;;;;14.20;12.70;;;7.10;99.90;;;;;;5101920;28;20032;-74
2022/05/03 04:34:40;;;;;;;18.23;14.55;;;7.10;99.90;;;;;;5108048;28;20047;-74
2022/05/03 04:37:06;;;;;;;18.63;14.25;;;7.20;99.90;;;;;;5098617;27;20040;-74
2022/05/03 04:39:31;;;;;;;17.00;15.00;;;7.20;99.90;;;;;;5102415;28;20035;-74
2022/05/03 04:41:57;;;;;;;20.90;17.48;;;7.20;99.90;;;;;;5110304;28;20040;-73
2022/05/03 04:44:22;;;;;;;24.95;18.35;;;7.30;99.90;;;;;;5098104;28;20055;-74
2022/05/03 04:46:48;;;;;;;17.70;14.02;;;7.30;99.90;;;;;;5102695;27;20075;-73
2022/05/03 04:49:14;;;;;;;21.63;15.77;;;8.90;99.90;;;;;;5104798;28;20055;-74
2022/05/03 04:51:40;;;;;;;18.55;15.05;;;7.40;99.90;;;;;;5087705;28;20047;-73
2022/05/03 04:54:05;;;;;;;16.33;14.60;;;7.40;99.90;;;;;;5103963;28;20131;-74
2022/05/03 04:56:32;;;;;;;20.52;16.38;;;7.50;99.90;;;;;;5089815;28;20055;-75
2022/05/03 04:58:58;;;;;;;18.48;16.52;;;7.50;99.90;;;;;;5103167;27;20092;-75
2022/05/03 05:01:24;;;;;;;18.45;16.40;;;7.60;99.90;;;;;;5105855;28;20047;-74
2022/05/03 05:03:50;;;;;;;19.80;16.02;;;7.60;99.90;;;;;;5103347;28;20084;-75
2022/05/03 05:06:16;;;;;;;24.23;18.65;;;7.60;99.90;;;;;;5085277;28;20036;-75
2022/05/03 05:08:43;;;;;;;34.10;22.85;;;7.60;99.90;;;;;;5101765;28;20098;-75
2022/05/03 05:11:09;;;;;;;19.65;16.25;;;7.60;99.90;;;;;;5081739;28;20064;-75
2022/05/03 05:13:36;;;;;;;19.38;17.20;;;9.10;99.90;;;;;;5104495;28;20491;-75
2022/05/03 05:16:03;;;;;;;19.25;16.55;;;7.70;99.90;;;;;;5100085;28;20043;-75
2022/05/03 05:18:29;;;;;;;18.40;16.42;;;7.70;99.90;;;;;;5107409;27;20035;-76
2022/05/03 05:20:55;;;;;;;19.08;15.70;;;7.70;99.90;;;;;;5087649;28;20548;-75
2022/05/03 05:23:21;;;;;;;21.70;17.65;;;7.80;99.90;;;;;;5109401;27;20125;-74
2022/05/03 05:25:47;;;;;;;24.70;18.55;;;7.80;99.90;;;;;;5106410;28;20044;-75
2022/05/03 05:28:14;;;;;;;23.08;18.38;;;7.70;99.90;;;;;;5095273;28;20111;-75
2022/05/03 05:30:41;;;;;;;20.58;18.48;;;7.80;99.90;;;;;;5108266;28;20118;-75
2022/05/03 05:33:06;;;;;;;25.67;18.60;;;7.80;99.90;;;;;;5106177;27;20109;-75
2022/05/03 05:35:32;;;;;;;27.98;18.77;;;7.80;99.90;;;;;;5104180;28;20508;-75
2022/05/03 05:37:58;;;;;;;24.42;17.33;;;7.80;99.90;;;;;;5072533;28;20070;-75
2022/05/03 05:40:23;;;;;;;25.90;17.88;;;7.90;99.90;;;;;;5105383;28;20499;-74
2022/05/03 05:42:49;;;;;;;22.55;17.98;;;7.90;99.90;;;;;;5086739;28;20122;-73
2022/05/03 05:45:17;;;;;;;25.40;17.20;;;7.90;99.90;;;;;;5103757;28;20768;-74
2022/05/03 05:47:43;;;;;;;25.77;18.95;;;7.90;99.90;;;;;;5104106;28;20097;-74
2022/05/03 05:50:09;;;;;;;23.67;19.40;;;8.00;99.90;;;;;;5103269;28;20051;-74
2022/05/03 05:55:19;;;;;;;31.98;19.15;;;8.20;99.90;;;;;;5106789;28;20047;-74
2022/05/03 05:57:45;;;;;;;25.02;19.65;;;8.20;99.90;;;;;;5093322;28;20108;-74
2022/05/03 06:00:11;;;;;;;25.90;20.70;;;8.20;99.90;;;;;;5095415;28;20039;-74
2022/05/03 06:02:38;;;;;;;28.45;20.92;;;8.20;99.90;;;;;;5106601;28;20061;-74
2022/05/03 06:05:03;;;;;;;26.98;20.02;;;8.20;99.90;;;;;;5107102;28;20100;-74
2022/05/03 06:07:29;;;;;;;25.20;20.27;;;8.20;99.90;;;;;;5101376;28;20043;-74
2022/05/03 06:09:55;;;;;;;25.55;20.27;;;8.20;99.90;;;;;;5103226;27;20039;-74
2022/05/03 06:12:20;;;;;;;27.02;20.60;;;8.30;99.90;;;;;;5086898;28;20063;-74
2022/05/03 06:14:46;;;;;;;25.70;21.50;;;8.30;99.90;;;;;;5101907;28;20040;-74
2022/05/03 06:17:12;;;;;;;30.60;22.45;;;8.30;99.90;;;;;;5105403;28;20039;-75
2022/05/03 06:19:37;;;;;;;29.17;23.73;;;8.30;99.90;;;;;;5105752;28;20039;-75
2022/05/03 06:22:03;;;;;;;32.33;21.92;;;8.30;99.90;;;;;;5101264;27;20182;-74
2022/05/03 06:24:29;;;;;;;28.10;21.35;;;8.30;99.90;;;;;;5100547;28;20035;-74
2022/05/03 06:26:54;;;;;;;34.17;22.50;;;9.70;99.90;;;;;;5084806;28;20491;-75
2022/05/03 06:29:20;;;;;;;30.05;22.50;;;8.40;99.90;;;;;;5102188;28;20031;-74
2022/05/03 06:31:46;;;;;;;29.88;21.15;;;9.10;99.90;;;;;;5083701;28;20070;-74
2022/05/03 06:34:12;;;;;;;24.58;21.23;;;8.40;99.90;;;;;;4748596;28;10000290;-74
2022/05/03 06:36:38;;;;;;;30.17;20.15;;;8.40;99.90;;;;;;5100343;28;20577;-75
2022/05/03 06:39:06;;;;;;;29.42;21.48;;;9.40;99.90;;;;;;5094240;28;20148;-76
2022/05/03 06:41:32;;;;;;;28.80;21.42;;;8.60;99.90;;;;;;5100413;28;20051;-73
2022/05/03 06:43:58;;;;;;;203.93;121.35;;;8.60;99.90;;;;;;5098666;28;20043;-74
2022/05/03 06:46:25;;;;;;;44.35;27.17;;;8.60;99.90;;;;;;5099003;27;20035;-74
2022/05/03 06:48:51;;;;;;;20.58;13.65;;;8.70;99.90;;;;;;5077904;28;20048;-75
2022/05/03 06:51:17;;;;;;;20.88;11.30;;;8.70;99.90;;;;;;5093315;28;20046;-73
2022/05/03 06:53:43;;;;;;;17.27;6.43;;;8.70;99.90;;;;;;5102745;28;20039;-74
2022/05/03 06:56:08;;;;;;;14.27;4.90;;;8.80;99.90;;;;;;5108018;27;20069;-73
2022/05/03 06:58:34;;;;;;;11.30;4.47;;;8.80;99.90;;;;;;5111406;28;20046;-74
2022/05/03 07:01:08;;;;;;;13.75;4.85;;;8.90;99.90;;;;;;5092019;28;20527;-73
2022/05/03 07:03:34;;;;;;;13.10;4.65;;;8.90;99.90;;;;;;5096355;28;20047;-74
2022/05/03 07:05:59;;;;;;;12.63;4.43;;;8.80;99.90;;;;;;5103820;28;20510;-74
2022/05/03 07:08:25;;;;;;;12.55;4.13;;;8.90;99.90;;;;;;5093481;28;20061;-74
2022/05/03 07:10:50;;;;;;;10.07;4.18;;;8.90;99.90;;;;;;5108281;28;20039;-74
2022/05/03 07:13:19;;;;;;;13.20;4.38;;;8.80;99.90;;;;;;5112017;28;20043;-73
2022/05/03 07:15:44;;;;;;;11.85;3.40;;;9.00;99.90;;;;;;5093987;28;20039;-74
2022/05/03 07:23:38;;;;;;;13.25;5.50;;;9.10;99.90;;;;;;5114983;28;20083;-74
2022/05/03 07:26:04;;;;;;;20.02;7.45;;;9.10;99.90;;;;;;5094827;28;20089;-73
2022/05/03 07:28:29;;;;;;;23.75;11.52;;;9.10;99.90;;;;;;5099861;28;20047;-73
2022/05/03 07:30:56;;;;;;;17.27;5.53;;;9.10;99.90;;;;;;5110769;28;20051;-73
2022/05/03 07:33:21;;;;;;;12.25;4.57;;;9.20;99.90;;;;;;5114762;28;20058;-73
2022/05/03 07:35:47;;;;;;;19.60;4.70;;;9.20;99.90;;;;;;5110299;28;20039;-74
2022/05/03 07:38:12;;;;;;;15.15;5.47;;;9.20;99.90;;;;;;5112672;28;20035;-74
2022/05/03 07:40:38;;;;;;;14.65;4.18;;;9.20;99.90;;;;;;5118406;28;20046;-73
2022/05/03 07:43:05;;;;;;;16.02;5.07;;;9.20;99.90;;;;;;5095258;28;20075;-73
2022/05/03 07:45:30;;;;;;;16.48;4.70;;;9.20;99.90;;;;;;5102257;28;20047;-74
2022/05/03 07:47:56;;;;;;;18.98;5.65;;;9.30;99.90;;;;;;5104214;28;20051;-70
2022/05/03 07:50:22;;;;;;;14.77;4.75;;;9.30;99.90;;;;;;5101476;28;20051;-73
2022/05/03 07:52:47;;;;;;;20.55;6.18;;;9.50;99.90;;;;;;5107285;28;20042;-72
2022/05/03 07:55:13;;;;;;;18.92;5.35;;;9.40;99.90;;;;;;5111680;28;20042;-72
2022/05/03 07:57:39;;;;;;;21.88;5.75;;;9.40;99.90;;;;;;5100022;28;20510;-71
2022/05/03 08:00:06;;;;;;;21.92;5.80;;;9.40;99.90;;;;;;5111158;27;20035;-72
2022/05/03 08:02:31;;;;;;;32.85;14.25;;;9.40;99.90;;;;;;5114095;27;20055;-72
2022/05/03 08:04:57;;;;;;;59.08;33.25;;;9.50;99.90;;;;;;5113270;28;20044;-71
2022/05/03 08:07:23;;;;;;;21.73;6.35;;;9.50;99.90;;;;;;5113829;27;20035;-70
2022/05/03 08:09:49;;;;;;;18.10;4.68;;;9.60;99.90;;;;;;5108384;27;20036;-72
2022/05/03 08:12:15;;;;;;;24.75;4.85;;;9.80;99.90;;;;;;5111983;27;20120;-71
2022/05/03 08:14:41;;;;;;;19.90;4.88;;;10.50;99.90;;;;;;5107798;27;20051;-72
2022/05/03 08:17:07;;;;;;;15.25;4.07;;;9.70;99.90;;;;;;5092826;28;20039;-71
2022/05/03 08:19:33;;;;;;;17.15;5.32;;;9.70;99.90;;;;;;5112223;27;20482;-72
2022/05/03 08:21:59;;;;;;;15.45;4.55;;;9.70;99.90;;;;;;5112415;27;20071;-72
2022/05/03 08:24:25;;;;;;;11.38;4.55;;;9.70;99.90;;;;;;5111750;27;20472;-72
2022/05/03 08:26:51;;;;;;;19.77;4.47;;;9.80;99.90;;;;;;5113239;27;20051;-73
2022/05/03 08:29:17;;;;;;;16.65;4.25;;;9.80;99.90;;;;;;5109933;27;20048;-71
2022/05/03 08:31:43;;;;;;;11.70;3.80;;;9.80;99.90;;;;;;5108679;27;20047;-72
2022/05/03 08:34:10;;;;;;;16.25;3.85;;;10.20;99.90;;;;;;5111427;27;20043;-70
2022/05/03 08:36:36;;;;;;;15.77;2.90;;;9.80;99.90;;;;;;5114278;27;20039;-72
2022/05/03 08:42:01;;;;;;;21.13;3.80;;;9.90;99.90;;;;;;5099605;27;20059;-70
2022/05/03 08:44:28;;;;;;;19.95;3.28;;;9.90;99.90;;;;;;5107184;27;20043;-72
2022/05/03 08:46:59;;;;;;;17.02;3.35;;;9.90;99.90;;;;;;5100896;27;20040;-71
2022/05/03 08:49:36;;;;;;;17.77;3.55;;;9.90;99.90;;;;;;5116370;27;20058;-73
2022/05/03 08:52:03;;;;;;;18.60;3.60;;;9.90;99.90;;;;;;5116373;27;20104;-73
2022/05/03 08:54:28;;;;;;;18.25;3.65;;;9.90;99.90;;;;;;5113518;27;20050;-73
2022/05/03 08:56:55;;;;;;;20.90;3.60;;;9.90;99.90;;;;;;5117748;27;20491;-71
2022/05/03 08:59:21;;;;;;;21.33;4.78;;;9.90;99.90;;;;;;5116046;27;20490;-72
2022/05/03 09:01:48;;;;;;;15.25;3.47;;;9.90;99.90;;;;;;5113054;27;20487;-74
2022/05/03 09:04:14;;;;;;;13.80;3.33;;;9.90;99.90;;;;;;5112941;27;20043;-74
2022/05/03 09:06:41;;;;;;;21.17;5.20;;;10.00;99.90;;;;;;5100988;27;20104;-73
2022/05/03 09:09:11;;;;;;;21.48;3.67;;;10.00;99.90;;;;;;5114614;27;20127;-72
2022/05/03 09:11:50;;;;;;;15.80;4.05;;;10.00;99.90;;;;;;5110034;27;20130;-72
2022/05/03 09:14:39;;;;;;;15.65;3.58;;;10.10;99.90;;;;;;5109788;27;20474;-72
2022/05/03 09:17:05;;;;;;;31.55;4.90;;;10.10;99.90;;;;;;5084008;27;20050;-72
2022/05/03 09:19:31;;;;;;;13.27;3.50;;;10.20;99.90;;;;;;5115161;27;20114;-73
2022/05/03 09:24:52;;;;;;;19.17;3.28;;;10.30;99.90;;;;;;5112100;27;20048;-71
2022/05/03 09:27:18;;;;;;;13.77;3.33;;;10.40;99.90;;;;;;5118343;27;20124;-72
2022/05/03 09:30:04;;;;;;;28.00;3.60;;;10.50;99.90;;;;;;5112275;27;20050;-73
2022/05/03 09:32:45;;;;;;;17.10;3.92;;;10.50;99.90;;;;;;5113196;27;20494;-74
2022/05/03 09:35:31;;;;;;;16.77;3.97;;;10.50;99.90;;;;;;5116927;27;20040;-72
2022/05/03 09:37:57;;;;;;;24.45;4.90;;;10.60;99.90;;;;;;5109573;27;20046;-72
2022/05/03 09:40:22;;;;;;;21.27;5.38;;;10.70;99.90;;;;;;5125011;27;20039;-73
2022/05/03 09:42:56;;;;;;;10.52;2.35;;;10.70;99.90;;;;;;5122152;27;20046;-71
2022/05/03 09:45:23;;;;;;;18.58;2.65;;;10.80;99.90;;;;;;5109426;27;20040;-73
2022/05/03 09:47:53;;;;;;;10.02;2.13;;;10.80;99.90;;;;;;5114749;27;20052;-73
2022/05/03 09:50:43;;;;;;;10.32;2.72;;;10.90;99.90;;;;;;5099521;27;20491;-73
2022/05/03 09:53:18;;;;;;;11.57;2.40;;;11.00;99.90;;;;;;5107979;27;20071;-73
2022/05/03 09:55:45;;;;;;;15.60;2.28;;;11.00;99.90;;;;;;5108710;27;20050;-73
2022/05/03 09:58:13;;;;;;;10.55;2.08;;;11.00;99.90;;;;;;5095729;27;20459;-72
2022/05/03 10:00:40;;;;;;;13.13;2.50;;;11.10;99.90;;;;;;5110101;27;20044;-73
2022/05/03 10:03:09;;;;;;;7.82;2.00;;;11.20;99.90;;;;;;5092692;27;20056;-73
2022/05/03 10:05:36;;;;;;;8.55;2.05;;;11.30;99.90;;;;;;5107736;27;20499;-73
2022/05/03 10:08:03;;;;;;;12.65;2.45;;;11.40;99.90;;;;;;5109171;27;20050;-74
2022/05/03 10:10:29;;;;;;;15.60;3.10;;;11.50;99.90;;;;;;5111276;27;20039;-75
2022/05/03 10:12:55;;;;;;;9.90;2.55;;;11.60;99.90;;;;;;5107917;27;20050;-74
2022/05/03 10:21:16;;;;;;;10.30;1.77;;;12.00;99.90;;;;;;5113865;27;20114;-74
2022/05/03 10:24:06;;;;;;;10.02;2.30;;;12.00;99.90;;;;;;5107373;28;20035;-75
2022/05/03 10:27:07;;;;;;;9.40;2.03;;;12.00;99.90;;;;;;5086029;28;20062;-75
2022/05/03 10:29:35;;;;;;;9.35;2.20;;;12.10;99.90;;;;;;5098010;27;20069;-73
2022/05/03 10:32:07;;;;;;;8.10;2.03;;;12.10;99.90;;;;;;5106234;27;20039;-73
2022/05/03 10:34:48;;;;;;;7.78;1.98;;;12.20;99.90;;;;;;5104107;28;20048;-72
2022/05/03 10:37:28;;;;;;;7.93;1.85;;;12.20;99.90;;;;;;5105462;28;20044;-75
2022/05/03 10:39:59;;;;;;;9.07;2.67;;;12.20;99.90;;;;;;5105233;28;20048;-75
2022/05/03 10:42:26;;;;;;;5.93;1.50;;;12.30;99.90;;;;;;5088128;28;20059;-75
2022/05/03 10:45:06;;;;;;;6.60;1.85;;;12.30;99.90;;;;;;5079243;28;20676;-75
2022/05/03 10:47:52;;;;;;;13.75;6.40;;;12.20;99.90;;;;;;5085034;28;20503;-75
2022/05/03 10:50:20;;;;;;;19.77;8.27;;;13.10;99.90;;;;;;5108110;28;20035;-74
2022/05/03 10:53:06;;;;;;;5.95;2.00;;;12.30;99.90;;;;;;5089077;28;20130;-75
2022/05/03 10:55:40;;;;;;;8.82;2.10;;;13.20;99.90;;;;;;5089671;28;20077;-75
2022/05/03 10:58:26;;;;;;;8.25;1.35;;;12.30;99.90;;;;;;5105290;28;20543;-73
2022/05/03 11:01:10;;;;;;;7.57;1.50;;;12.40;99.90;;;;;;5091359;28;20051;-73
2022/05/03 11:03:48;;;;;;;8.18;1.50;;;12.40;99.90;;;;;;5107264;28;20130;-73
2022/05/03 11:06:21;;;;;;;8.73;2.15;;;12.40;99.90;;;;;;5116787;28;20044;-72
2022/05/03 11:09:09;;;;;;;7.45;2.47;;;12.40;99.90;;;;;;5110282;28;20108;-73
2022/05/03 11:11:37;;;;;;;12.38;3.03;;;12.40;99.90;;;;;;5112209;28;20048;-71
2022/05/03 11:14:24;;;;;;;7.95;1.80;;;12.40;99.90;;;;;;5111494;28;20043;-72
2022/05/03 11:17:05;;;;;;;6.43;1.63;;;12.50;99.90;;;;;;5105575;28;20051;-71
2022/05/03 11:19:36;;;;;;;7.80;1.75;;;12.50;99.90;;;;;;5108710;28;20503;-73
2022/05/03 11:22:12;;;;;;;7.82;1.27;;;12.50;99.90;;;;;;5113534;28;20035;-72
2022/05/03 11:24:46;;;;;;;5.18;1.30;;;12.40;99.90;;;;;;5109212;28;20538;-71
2022/05/03 11:27:13;;;;;;;4.78;1.20;;;12.50;99.90;;;;;;5106785;28;20044;-72
2022/05/03 11:29:44;;;;;;;7.50;1.77;;;12.50;99.90;;;;;;5111525;28;20063;-71
2022/05/03 11:32:10;;;;;;;4.03;1.38;;;12.60;99.90;;;;;;5110340;28;20036;-71
2022/05/03 11:34:37;;;;;;;5.43;1.80;;;12.60;99.90;;;;;;5112678;28;20078;-71
2022/05/03 11:37:04;;;;;;;7.95;1.50;;;12.60;99.90;;;;;;5111709;27;20490;-72
2022/05/03 11:39:30;;;;;;;5.15;1.50;;;12.60;99.90;;;;;;5111854;28;20122;-72
2022/05/03 11:41:56;;;;;;;4.72;1.40;;;12.70;99.90;;;;;;5111646;28;20052;-72
2022/05/03 11:44:22;;;;;;;6.03;1.55;;;12.70;99.90;;;;;;5110323;28;20533;-73
2022/05/03 11:46:49;;;;;;;4.95;1.50;;;12.80;99.90;;;;;;5104028;28;20035;-72
2022/05/03 11:49:16;;;;;;;6.55;1.60;;;12.90;99.90;;;;;;5110271;28;20043;-71
2022/05/03 11:57:33;;;;;;;11.25;1.50;;;13.20;99.90;;;;;;5110731;28;20055;-74
2022/05/03 12:00:00;;;;;;;9.13;1.95;;;13.30;99.90;;;;;;5108597;28;20118;-73
2022/05/03 12:02:27;;;;;;;6.00;1.75;;;13.50;99.90;;;;;;5111486;28;20043;-76
2022/05/03 12:05:04;;;;;;;7.35;2.17;;;13.70;99.90;;;;;;5111429;28;20043;-74
2022/05/03 12:07:50;;;;;;;6.70;1.38;;;14.00;99.90;;;;;;5103152;28;20072;-74
2022/05/03 12:10:25;;;;;;;9.23;1.67;;;14.20;99.90;;;;;;5105113;28;20039;-73
2022/05/03 12:13:13;;;;;;;7.75;1.52;;;14.40;99.90;;;;;;5109014;28;20051;-74
2022/05/03 12:15:49;;;;;;;5.78;1.30;;;14.50;99.90;;;;;;5110155;28;20100;-73
2022/05/03 12:18:28;;;;;;;8.00;1.90;;;14.50;99.90;;;;;;5102984;28;20406;-73
2022/05/03 12:21:06;;;;;;;8.88;1.25;;;14.50;99.90;;;;;;5111112;28;20074;-74
2022/05/03 12:23:34;;;;;;;5.60;1.38;;;14.30;99.90;;;;;;5112045;28;20075;-74
2022/05/03 12:26:20;;;;;;;7.22;1.60;;;14.10;99.90;;;;;;5107345;28;20044;-74
2022/05/03 12:28:56;;;;;;;5.25;1.25;;;14.00;99.90;;;;;;5111403;28;20059;-74
2022/05/03 12:31:26;;;;;;;5.90;1.42;;;14.00;99.00;;;;;;5086684;28;20046;-75
2022/05/03 12:33:56;;;;;;;5.85;1.30;;;13.80;99.00;;;;;;5090306;28;20035;-73
2022/05/03 12:36:36;;;;;;;3.42;0.82;;;13.70;99.40;;;;;;5108890;28;20071;-73
2022/05/03 12:39:11;;;;;;;6.13;1.30;;;13.60;99.50;;;;;;5110861;28;20395;-75
2022/05/03 12:41:37;;;;;;;9.20;1.60;;;13.60;99.10;;;;;;5111439;28;20050;-74
2022/05/03 12:44:05;;;;;;;5.70;1.40;;;13.50;99.50;;;;;;5089455;28;20042;-76
2022/05/03 12:46:31;;;;;;;7.90;1.08;;;13.40;99.50;;;;;;5093780;28;20047;-73
2022/05/03 12:49:00;;;;;;;6.38;1.75;;;13.30;99.70;;;;;;5094144;28;20052;-73
2022/05/03 12:51:25;;;;;;;6.50;1.80;;;13.30;99.90;;;;;;5113104;28;20040;-74
2022/05/03 12:53:51;;;;;;;8.25;1.40;;;13.30;99.70;;;;;;5110833;28;20097;-74
2022/05/03 12:59:02;;;;;;;;;;;13.40;99.70;;;;;;5111640;28;20051;-74
2022/05/03 13:01:27;;;;;;;7.00;1.52;;;13.50;99.70;;;;;;5110805;28;20283;-73
2022/05/03 13:03:54;;;;;;;4.22;1.33;;;13.60;99.40;;;;;;5111121;28;20047;-74
2022/05/03 13:06:20;;;;;;;5.70;1.33;;;13.90;99.10;;;;;;5111607;28;20122;-74
2022/05/03 13:08:46;;;;;;;5.85;1.23;;;15.00;98.90;;;;;;5111024;28;20040;-74
2022/05/03 13:11:12;;;;;;;9.65;1.50;;;14.10;98.50;;;;;;5111446;28;20048;-73
2022/05/03 13:13:38;;;;;;;6.25;1.25;;;14.20;98.40;;;;;;5110781;28;20043;-74
2022/05/03 13:16:04;;;;;;;6.05;1.23;;;14.10;98.10;;;;;;5110524;28;20450;-74
2022/05/03 13:18:30;;;;;;;4.55;1.20;;;14.20;98.30;;;;;;5112834;28;20070;-73
2022/05/03 13:20:56;;;;;;;4.95;1.58;;;14.10;98.40;;;;;;5110669;28;20082;-73
2022/05/03 13:23:22;;;;;;;7.68;1.15;;;14.20;98.00;;;;;;5109559;28;20526;-73
2022/05/03 13:25:48;;;;;;;5.25;1.38;;;14.30;97.90;;;;;;5101268;28;20565;-75
2022/05/03 13:28:15;;;;;;;6.50;1.00;;;14.50;97.40;;;;;;5110509;28;20134;-75
2022/05/03 13:30:41;;;;;;;5.85;1.25;;;14.60;97.10;;;;;;5110962;28;20051;-73
2022/05/03 13:33:06;;;;;;;5.65;1.15;;;14.80;97.00;;;;;;5100109;28;20109;-74
2022/05/03 13:41:00;;;;;;;4.32;1.60;;;15.20;96.10;;;;;;5109937;28;20051;-74
2022/05/03 13:43:27;;;;;;;35.35;29.10;;;15.10;96.30;;;;;;5110326;28;20048;-74